sensor_id;sensor_type;location;lat;lon;timestamp;pressure;altitude;pressure_sealevel;temperature;humidity
60307;BME280;46155;52.364;6.580;2023-05-22T03:01:11;101134.31;;;17.54;100.00
60307;BME280;46155;52.364;6.580;2023-05-22T03:03:37;101100.41;;;17.47;100.00
60307;BME280;46155;52.364;6.580;2023-05-22T03:06:02;101115.84;;;17.58;100.00
60307;BME280;46155;52.364;6.580;2023-05-22T03:08:28;101121.28;;;17.61;100.00
60307;BME280;46155;52.364;6.580;2023-05-22T03:10:57;101129.41;;;17.65;100.00
60307;BME280;46155;52.364;6.580;2023-05-22T03:13:23;101129.97;;;17.57;100.00
60307;BME280;46155;52.364;6.580;2023-05-22T03:15:49;101138.25;;;17.42;100.00
60307;BME280;46155;52.364;6.580;2023-05-22T03:18:14;101134.44;;;17.35;100.00
60307;BME280;46155;52.364;6.580;2023-05-22T03:20:40;101141.69;;;17.39;100.00
60307;BME280;46155;52.364;6.580;2023-05-22T03:23:05;101132.84;;;17.38;100.00
60307;BME280;46155;52.364;6.580;2023-05-22T03:25:31;101132.94;;;17.42;100.00
60307;BME280;46155;52.364;6.580;2023-05-22T03:27:56;101137.47;;;17.44;100.00
60307;BME280;46155;52.364;6.580;2023-05-22T03:30:21;101125.97;;;17.44;100.00
60307;BME280;46155;52.364;6.580;2023-05-22T03:32:47;101129.63;;;17.47;100.00
60307;BME280;46155;52.364;6.580;2023-05-22T03:35:12;101129.72;;;17.50;100.00
60307;BME280;46155;52.364;6.580;2023-05-22T03:37:40;101127.06;;;17.50;100.00
60307;BME280;46155;52.364;6.580;2023-05-22T03:40:06;101117.25;;;17.48;100.00
60307;BME280;46155;52.364;6.580;2023-05-22T03:42:31;101110.81;;;17.41;100.00
60307;BME280;46155;52.364;6.580;2023-05-22T03:44:57;101108.06;;;17.38;100.00
60307;BME280;46155;52.364;6.580;2023-05-22T03:47:22;101101.88;;;17.39;100.00
60307;BME280;46155;52.364;6.580;2023-05-22T03:49:47;101101.09;;;17.42;100.00
60307;BME280;46155;52.364;6.580;2023-05-22T03:52:12;101098.50;;;17.43;100.00
60307;BME280;46155;52.364;6.580;2023-05-22T03:54:38;101096.69;;;17.42;100.00
60307;BME280;46155;52.364;6.580;2023-05-22T03:57:03;101096.47;;;17.36;100.00
60307;BME280;46155;52.364;6.580;2023-05-22T03:59:29;101095.50;;;17.34;100.00
60307;BME280;46155;52.364;6.580;2023-05-22T04:01:54;101086.47;;;17.29;100.00
60307;BME280;46155;52.364;6.580;2023-05-22T04:04:22;101082.78;;;17.25;100.00
60307;BME280;46155;52.364;6.580;2023-05-22T04:06:50;101088.16;;;17.27;100.00
60307;BME280;46155;52.364;6.580;2023-05-22T04:09:16;101093.53;;;17.28;100.00
60307;BME280;46155;52.364;6.580;2023-05-22T04:11:41;101091.03;;;17.33;100.00
60307;BME280;46155;52.364;6.580;2023-05-22T04:14:07;101090.25;;;17.35;100.00
60307;BME280;46155;52.364;6.580;2023-05-22T04:16:33;101089.34;;;17.35;100.00
60307;BME280;46155;52.364;6.580;2023-05-22T04:18:59;101075.34;;;17.39;100.00
60307;BME280;46155;52.364;6.580;2023-05-22T04:21:30;101078.03;;;17.41;100.00
60307;BME280;46155;52.364;6.580;2023-05-22T04:24:02;101078.34;;;17.48;100.00
60307;BME280;46155;52.364;6.580;2023-05-22T04:26:31;101077.63;;;17.52;100.00
60307;BME280;46155;52.364;6.580;2023-05-22T04:28:57;101082.06;;;17.53;100.00
60307;BME280;46155;52.364;6.580;2023-05-22T04:31:22;101074.00;;;17.50;100.00
60307;BME280;46155;52.364;6.580;2023-05-22T04:33:48;101085.63;;;17.54;100.00
60307;BME280;46155;52.364;6.580;2023-05-22T04:36:14;101081.31;;;17.58;100.00
60307;BME280;46155;52.364;6.580;2023-05-22T04:38:39;101089.22;;;17.56;100.00
60307;BME280;46155;52.364;6.580;2023-05-22T04:41:05;101079.28;;;17.50;100.00
60307;BME280;46155;52.364;6.580;2023-05-22T04:43:32;101090.84;;;17.51;100.00
60307;BME280;46155;52.364;6.580;2023-05-22T04:45:58;101082.81;;;17.49;100.00
60307;BME280;46155;52.364;6.580;2023-05-22T04:48:23;101090.69;;;17.48;100.00
60307;BME280;46155;52.364;6.580;2023-05-22T04:50:49;101088.00;;;17.46;100.00
60307;BME280;46155;52.364;6.580;2023-05-22T04:53:14;101089.81;;;17.47;100.00
60307;BME280;46155;52.364;6.580;2023-05-22T04:55:40;101097.75;;;17.47;100.00
60307;BME280;46155;52.364;6.580;2023-05-22T04:58:05;101106.63;;;17.48;100.00
60307;BME280;46155;52.364;6.580;2023-05-22T05:00:30;101110.19;;;17.48;100.00
60307;BME280;46155;52.364;6.580;2023-05-22T05:02:56;101113.69;;;17.47;100.00
60307;BME280;46155;52.364;6.580;2023-05-22T05:05:21;101103.91;;;17.46;100.00
60307;BME280;46155;52.364;6.580;2023-05-22T05:07:47;101109.22;;;17.46;100.00
60307;BME280;46155;52.364;6.580;2023-05-22T05:10:14;101109.94;;;17.42;100.00
60307;BME280;46155;52.364;6.580;2023-05-22T05:12:39;101113.69;;;17.47;100.00
60307;BME280;46155;52.364;6.580;2023-05-22T05:15:05;101113.53;;;17.43;100.00
60307;BME280;46155;52.364;6.580;2023-05-22T05:17:31;101115.16;;;17.39;100.00
60307;BME280;46155;52.364;6.580;2023-05-22T05:19:56;101117.81;;;17.39;100.00
60307;BME280;46155;52.364;6.580;2023-05-22T05:22:21;101118.31;;;17.29;100.00
60307;BME280;46155;52.364;6.580;2023-05-22T05:24:47;101114.88;;;17.31;100.00
60307;BME280;46155;52.364;6.580;2023-05-22T05:27:12;101113.16;;;17.33;100.00
60307;BME280;46155;52.364;6.580;2023-05-22T05:29:38;101121.31;;;17.38;100.00
60307;BME280;46155;52.364;6.580;2023-05-22T05:32:03;101119.50;;;17.37;100.00
60307;BME280;46155;52.364;6.580;2023-05-22T05:34:29;101125.44;;;17.30;100.00
60307;BME280;46155;52.364;6.580;2023-05-22T05:36:54;101129.69;;;17.26;100.00
60307;BME280;46155;52.364;6.580;2023-05-22T05:39:21;101131.47;;;17.26;100.00
60307;BME280;46155;52.364;6.580;2023-05-22T05:41:46;101129.59;;;17.23;100.00
60307;BME280;46155;52.364;6.580;2023-05-22T05:44:12;101133.28;;;17.27;100.00
60307;BME280;46155;52.364;6.580;2023-05-22T05:46:37;101133.50;;;17.33;100.00
60307;BME280;46155;52.364;6.580;2023-05-22T05:49:06;101118.66;;;17.38;100.00
60307;BME280;46155;52.364;6.580;2023-05-22T05:51:34;101132.22;;;17.46;100.00
60307;BME280;46155;52.364;6.580;2023-05-22T05:53:59;101133.16;;;17.48;100.00
60307;BME280;46155;52.364;6.580;2023-05-22T05:56:25;101131.13;;;17.41;100.00
60307;BME280;46155;52.364;6.580;2023-05-22T05:58:51;101130.06;;;17.35;100.00
60307;BME280;46155;52.364;6.580;2023-05-22T06:01:16;101132.94;;;17.42;100.00
60307;BME280;46155;52.364;6.580;2023-05-22T06:03:42;101135.75;;;17.46;100.00
60307;BME280;46155;52.364;6.580;2023-05-22T06:06:07;101133.16;;;17.48;100.00
60307;BME280;46155;52.364;6.580;2023-05-22T06:08:33;101138.63;;;17.51;100.00
60307;BME280;46155;52.364;6.580;2023-05-22T06:10:58;101140.41;;;17.52;100.00
60307;BME280;46155;52.364;6.580;2023-05-22T06:13:24;101141.28;;;17.51;100.00
60307;BME280;46155;52.364;6.580;2023-05-22T06:15:49;101143.19;;;17.55;100.00
60307;BME280;46155;52.364;6.580;2023-05-22T06:18:14;101149.28;;;17.52;100.00
60307;BME280;46155;52.364;6.580;2023-05-22T06:20:41;101143.38;;;17.60;100.00
60307;BME280;46155;52.364;6.580;2023-05-22T06:23:07;101151.28;;;17.58;100.00
60307;BME280;46155;52.364;6.580;2023-05-22T06:25:32;101151.16;;;17.55;100.00
60307;BME280;46155;52.364;6.580;2023-05-22T06:27:58;101159.03;;;17.53;100.00
60307;BME280;46155;52.364;6.580;2023-05-22T06:30:25;101159.72;;;17.48;100.00
60307;BME280;46155;52.364;6.580;2023-05-22T06:32:50;101157.16;;;17.49;100.00
60307;BME280;46155;52.364;6.580;2023-05-22T06:35:16;101160.47;;;17.44;100.00
60307;BME280;46155;52.364;6.580;2023-05-22T06:37:42;101155.72;;;17.36;100.00
60307;BME280;46155;52.364;6.580;2023-05-22T06:40:08;101168.34;;;17.42;100.00
60307;BME280;46155;52.364;6.580;2023-05-22T06:42:34;101171.19;;;17.47;100.00
60307;BME280;46155;52.364;6.580;2023-05-22T06:44:59;101169.38;;;17.46;100.00
60307;BME280;46155;52.364;6.580;2023-05-22T06:47:25;101166.06;;;17.51;100.00
60307;BME280;46155;52.364;6.580;2023-05-22T06:49:51;101180.63;;;17.63;100.00
60307;BME280;46155;52.364;6.580;2023-05-22T06:52:16;101175.44;;;17.66;100.00
60307;BME280;46155;52.364;6.580;2023-05-22T06:54:41;101177.47;;;17.73;100.00
60307;BME280;46155;52.364;6.580;2023-05-22T06:57:08;101176.81;;;17.79;100.00
60307;BME280;46155;52.364;6.580;2023-05-22T06:59:34;101178.66;;;17.81;100.00
60307;BME280;46155;52.364;6.580;2023-05-22T07:01:59;101174.16;;;17.79;100.00
60307;BME280;46155;52.364;6.580;2023-05-22T07:04:25;101184.81;;;17.80;100.00
60307;BME280;46155;52.364;6.580;2023-05-22T07:06:50;101176.19;;;17.86;100.00
60307;BME280;46155;52.364;6.580;2023-05-22T07:09:18;101179.75;;;17.86;100.00
60307;BME280;46155;52.364;6.580;2023-05-22T07:11:44;101184.38;;;17.91;100.00
60307;BME280;46155;52.364;6.580;2023-05-22T07:14:09;101181.81;;;17.94;100.00
60307;BME280;46155;52.364;6.580;2023-05-22T07:16:37;101185.47;;;17.97;100.00
60307;BME280;46155;52.364;6.580;2023-05-22T07:19:02;101191.00;;;18.02;100.00
60307;BME280;46155;52.364;6.580;2023-05-22T07:21:27;101189.28;;;18.04;100.00
60307;BME280;46155;52.364;6.580;2023-05-22T07:23:56;101187.91;;;17.91;100.00
60307;BME280;46155;52.364;6.580;2023-05-22T07:26:21;101180.00;;;17.93;100.00
60307;BME280;46155;52.364;6.580;2023-05-22T07:28:47;101187.47;;;18.03;100.00
60307;BME280;46155;52.364;6.580;2023-05-22T07:31:13;101189.22;;;18.02;100.00
60307;BME280;46155;52.364;6.580;2023-05-22T07:33:38;101192.03;;;18.07;100.00
60307;BME280;46155;52.364;6.580;2023-05-22T07:36:04;101192.50;;;18.19;100.00
60307;BME280;46155;52.364;6.580;2023-05-22T07:38:29;101191.53;;;18.17;100.00
60307;BME280;46155;52.364;6.580;2023-05-22T07:40:54;101198.75;;;18.21;100.00
60307;BME280;46155;52.364;6.580;2023-05-22T07:43:20;101192.06;;;18.33;100.00
60307;BME280;46155;52.364;6.580;2023-05-22T07:45:45;101190.28;;;18.32;100.00
60307;BME280;46155;52.364;6.580;2023-05-22T07:48:11;101196.63;;;18.37;100.00
60307;BME280;46155;52.364;6.580;2023-05-22T07:50:36;101204.19;;;18.24;100.00
60307;BME280;46155;52.364;6.580;2023-05-22T07:53:01;101193.56;;;18.24;100.00
60307;BME280;46155;52.364;6.580;2023-05-22T07:55:28;101195.78;;;18.38;100.00
60307;BME280;46155;52.364;6.580;2023-05-22T07:57:54;101187.56;;;18.30;100.00
60307;BME280;46155;52.364;6.580;2023-05-22T08:00:20;101194.25;;;18.45;100.00
60307;BME280;46155;52.364;6.580;2023-05-22T08:02:45;101201.56;;;18.50;100.00
60307;BME280;46155;52.364;6.580;2023-05-22T08:05:11;101192.09;;;18.58;100.00
60307;BME280;46155;52.364;6.580;2023-05-22T08:07:36;101195.75;;;18.62;100.00
60307;BME280;46155;52.364;6.580;2023-05-22T08:10:05;101200.78;;;18.80;100.00
60307;BME280;46155;52.364;6.580;2023-05-22T08:12:31;101201.34;;;18.96;100.00
60307;BME280;46155;52.364;6.580;2023-05-22T08:14:57;101210.47;;;19.04;100.00
60307;BME280;46155;52.364;6.580;2023-05-22T08:17:22;101204.97;;;18.99;100.00
60307;BME280;46155;52.364;6.580;2023-05-22T08:19:47;101202.19;;;19.23;100.00
60307;BME280;46155;52.364;6.580;2023-05-22T08:22:13;101195.94;;;19.50;100.00
60307;BME280;46155;52.364;6.580;2023-05-22T08:24:38;101207.56;;;19.52;100.00
60307;BME280;46155;52.364;6.580;2023-05-22T08:27:03;101206.50;;;19.47;100.00
60307;BME280;46155;52.364;6.580;2023-05-22T08:29:29;101200.72;;;19.33;100.00
60307;BME280;46155;52.364;6.580;2023-05-22T08:31:54;101188.91;;;19.52;100.00
60307;BME280;46155;52.364;6.580;2023-05-22T08:34:21;101201.63;;;19.63;100.00
60307;BME280;46155;52.364;6.580;2023-05-22T08:36:46;101200.84;;;19.65;100.00
60307;BME280;46155;52.364;6.580;2023-05-22T08:39:13;101198.03;;;19.60;100.00
60307;BME280;46155;52.364;6.580;2023-05-22T08:41:38;101199.47;;;19.49;100.00
60307;BME280;46155;52.364;6.580;2023-05-22T08:44:03;101202.19;;;19.51;100.00
60307;BME280;46155;52.364;6.580;2023-05-22T08:46:29;101197.56;;;19.45;100.00
60307;BME280;46155;52.364;6.580;2023-05-22T08:48:57;101205.50;;;19.43;100.00
60307;BME280;46155;52.364;6.580;2023-05-22T08:51:32;101196.03;;;19.53;100.00
60307;BME280;46155;52.364;6.580;2023-05-22T08:53:59;101194.78;;;19.71;100.00
60307;BME280;46155;52.364;6.580;2023-05-22T08:56:25;101203.06;;;19.80;100.00
60307;BME280;46155;52.364;6.580;2023-05-22T08:58:50;101188.41;;;19.66;100.00
60307;BME280;46155;52.364;6.580;2023-05-22T09:01:16;101188.13;;;19.85;100.00
60307;BME280;46155;52.364;6.580;2023-05-22T09:03:42;101179.97;;;20.11;100.00
60307;BME280;46155;52.364;6.580;2023-05-22T09:06:09;101190.34;;;20.34;100.00
60307;BME280;46155;52.364;6.580;2023-05-22T09:08:36;101184.66;;;20.53;100.00
60307;BME280;46155;52.364;6.580;2023-05-22T09:11:02;101194.03;;;20.37;100.00
60307;BME280;46155;52.364;6.580;2023-05-22T09:15:59;101191.13;;;20.29;100.00
60307;BME280;46155;52.364;6.580;2023-05-22T09:18:31;101189.16;;;20.22;100.00
60307;BME280;46155;52.364;6.580;2023-05-22T09:20:57;101189.84;;;20.15;100.00
60307;BME280;46155;52.364;6.580;2023-05-22T09:23:23;101179.38;;;20.23;100.00
60307;BME280;46155;52.364;6.580;2023-05-22T09:25:53;101193.66;;;20.23;100.00
60307;BME280;46155;52.364;6.580;2023-05-22T09:28:20;101181.13;;;20.21;100.00
60307;BME280;46155;52.364;6.580;2023-05-22T09:30:49;101187.34;;;20.21;100.00
60307;BME280;46155;52.364;6.580;2023-05-22T09:33:15;101182.22;;;20.27;100.00
60307;BME280;46155;52.364;6.580;2023-05-22T09:35:41;101177.69;;;20.58;100.00
60307;BME280;46155;52.364;6.580;2023-05-22T09:38:10;101175.34;;;20.71;100.00
60307;BME280;46155;52.364;6.580;2023-05-22T09:40:36;101180.09;;;20.83;100.00
60307;BME280;46155;52.364;6.580;2023-05-22T09:43:08;101173.38;;;20.98;100.00
60307;BME280;46155;52.364;6.580;2023-05-22T09:45:34;101171.81;;;21.08;100.00
60307;BME280;46155;52.364;6.580;2023-05-22T09:48:01;101164.69;;;21.09;100.00
60307;BME280;46155;52.364;6.580;2023-05-22T09:50:26;101165.53;;;21.06;100.00
60307;BME280;46155;52.364;6.580;2023-05-22T09:52:52;101172.66;;;21.06;100.00
60307;BME280;46155;52.364;6.580;2023-05-22T09:55:19;101172.91;;;21.17;100.00
60307;BME280;46155;52.364;6.580;2023-05-22T09:57:47;101174.34;;;21.42;100.00
60307;BME280;46155;52.364;6.580;2023-05-22T10:00:17;101174.31;;;21.40;100.00
60307;BME280;46155;52.364;6.580;2023-05-22T10:02:45;101174.66;;;21.54;100.00
60307;BME280;46155;52.364;6.580;2023-05-22T10:05:11;101167.69;;;21.61;100.00
60307;BME280;46155;52.364;6.580;2023-05-22T10:07:44;101172.38;;;21.73;100.00
60307;BME280;46155;52.364;6.580;2023-05-22T10:10:14;101179.56;;;21.75;98.42
60307;BME280;46155;52.364;6.580;2023-05-22T10:12:44;101169.00;;;21.83;100.00
60307;BME280;46155;52.364;6.580;2023-05-22T10:15:12;101172.88;;;21.96;100.00
60307;BME280;46155;52.364;6.580;2023-05-22T10:17:38;101171.16;;;22.01;99.92
60307;BME280;46155;52.364;6.580;2023-05-22T10:20:05;101174.88;;;22.08;97.52
60307;BME280;46155;52.364;6.580;2023-05-22T10:22:35;101167.41;;;22.35;100.00
60307;BME280;46155;52.364;6.580;2023-05-22T10:25:01;101167.41;;;22.35;95.56
60307;BME280;46155;52.364;6.580;2023-05-22T10:27:26;101169.91;;;22.29;96.44
60307;BME280;46155;52.364;6.580;2023-05-22T10:30:03;101161.88;;;22.29;95.55
60307;BME280;46155;52.364;6.580;2023-05-22T10:32:44;101152.13;;;22.30;93.48
60307;BME280;46155;52.364;6.580;2023-05-22T10:35:18;101155.97;;;22.44;93.25
60307;BME280;46155;52.364;6.580;2023-05-22T10:37:52;101146.09;;;22.42;93.69
60307;BME280;46155;52.364;6.580;2023-05-22T10:40:24;101152.72;;;22.15;92.74
60307;BME280;46155;52.364;6.580;2023-05-22T10:43:02;101148.75;;;21.94;92.03
60307;BME280;46155;52.364;6.580;2023-05-22T10:45:30;101144.69;;;22.15;90.24
60307;BME280;46155;52.364;6.580;2023-05-22T10:48:03;101152.72;;;22.15;92.84
60307;BME280;46155;52.364;6.580;2023-05-22T10:50:29;101144.78;;;22.19;93.02
60307;BME280;46155;52.364;6.580;2023-05-22T10:53:18;101146.75;;;22.30;92.70
60307;BME280;46155;52.364;6.580;2023-05-22T10:58:13;101145.13;;;22.38;90.22
60307;BME280;46155;52.364;6.580;2023-05-22T11:00:38;101146.41;;;22.59;94.34
60307;BME280;46155;52.364;6.580;2023-05-22T11:03:03;101144.81;;;22.72;92.23
60307;BME280;46155;52.364;6.580;2023-05-22T11:05:33;101149.56;;;22.90;91.74
60307;BME280;46155;52.364;6.580;2023-05-22T11:08:33;101147.25;;;22.58;87.78
60307;BME280;46155;52.364;6.580;2023-05-22T11:10:56;101151.78;;;22.60;88.43
60307;BME280;46155;52.364;6.580;2023-05-22T11:13:25;101144.94;;;22.79;90.84
60307;BME280;46155;52.364;6.580;2023-05-22T11:15:53;101136.31;;;22.99;92.10
60307;BME280;46155;52.364;6.580;2023-05-22T11:18:20;101140.25;;;23.21;88.20
60307;BME280;46155;52.364;6.580;2023-05-22T11:20:45;101150.00;;;23.17;85.89
60307;BME280;46155;52.364;6.580;2023-05-22T11:23:11;101144.63;;;23.16;83.90
60307;BME280;46155;52.364;6.580;2023-05-22T11:25:39;101153.19;;;22.93;86.06
60307;BME280;46155;52.364;6.580;2023-05-22T11:28:05;101143.47;;;23.00;87.06
60307;BME280;46155;52.364;6.580;2023-05-22T11:30:32;101134.69;;;23.09;84.88
60307;BME280;46155;52.364;6.580;2023-05-22T11:32:59;101149.16;;;23.20;82.91
60307;BME280;46155;52.364;6.580;2023-05-22T11:35:25;101144.75;;;23.24;81.67
60307;BME280;46155;52.364;6.580;2023-05-22T11:37:52;101140.38;;;23.32;79.17
60307;BME280;46155;52.364;6.580;2023-05-22T11:40:19;101147.50;;;23.28;77.74
60307;BME280;46155;52.364;6.580;2023-05-22T11:42:45;101145.06;;;23.47;81.53
60307;BME280;46155;52.364;6.580;2023-05-22T11:45:11;101140.75;;;23.58;77.09
60307;BME280;46155;52.364;6.580;2023-05-22T11:47:37;101137.28;;;23.68;78.11
60307;BME280;46155;52.364;6.580;2023-05-22T11:50:03;101136.88;;;23.37;75.38
60307;BME280;46155;52.364;6.580;2023-05-22T11:52:33;101123.78;;;23.58;78.17
60307;BME280;46155;52.364;6.580;2023-05-22T11:54:59;101124.84;;;23.73;78.42
60307;BME280;46155;52.364;6.580;2023-05-22T11:57:25;101123.81;;;23.62;72.39
60307;BME280;46155;52.364;6.580;2023-05-22T11:59:50;101123.75;;;23.56;72.29
60307;BME280;46155;52.364;6.580;2023-05-22T12:02:17;101123.66;;;23.48;73.91
60307;BME280;46155;52.364;6.580;2023-05-22T12:04:43;101121.75;;;23.40;73.76
60307;BME280;46155;52.364;6.580;2023-05-22T12:07:08;101117.38;;;23.45;71.60
60307;BME280;46155;52.364;6.580;2023-05-22T12:09:34;101121.59;;;23.29;72.84
60307;BME280;46155;52.364;6.580;2023-05-22T12:11:59;101125.25;;;23.35;73.78
60307;BME280;46155;52.364;6.580;2023-05-22T12:14:26;101116.47;;;23.46;72.71
60307;BME280;46155;52.364;6.580;2023-05-22T12:16:52;101119.28;;;23.55;72.49
60307;BME280;46155;52.364;6.580;2023-05-22T12:19:17;101129.06;;;23.54;67.39
60307;BME280;46155;52.364;6.580;2023-05-22T12:21:43;101119.97;;;23.40;69.84
60307;BME280;46155;52.364;6.580;2023-05-22T12:24:09;101126.28;;;23.44;72.06
60307;BME280;46155;52.364;6.580;2023-05-22T12:26:35;101115.75;;;23.59;72.75
60307;BME280;46155;52.364;6.580;2023-05-22T12:29:02;101115.78;;;23.62;69.31
60307;BME280;46155;52.364;6.580;2023-05-22T12:31:33;101112.00;;;23.45;68.58
60307;BME280;46155;52.364;6.580;2023-05-22T12:34:02;101117.22;;;23.35;70.78
60307;BME280;46155;52.364;6.580;2023-05-22T12:36:36;101110.41;;;23.59;71.67
60307;BME280;46155;52.364;6.580;2023-05-22T12:39:09;101112.31;;;23.72;70.53
60307;BME280;46155;52.364;6.580;2023-05-22T12:41:35;101120.38;;;23.72;66.01
60307;BME280;46155;52.364;6.580;2023-05-22T12:44:01;101115.94;;;23.76;66.97
60307;BME280;46155;52.364;6.580;2023-05-22T12:46:30;101116.09;;;23.87;67.98
60307;BME280;46155;52.364;6.580;2023-05-22T12:48:57;101112.56;;;23.91;68.21
60307;BME280;46155;52.364;6.580;2023-05-22T12:51:24;101105.59;;;24.09;72.24
60307;BME280;46155;52.364;6.580;2023-05-22T12:53:51;101107.47;;;24.16;67.46
60307;BME280;46155;52.364;6.580;2023-05-22T12:56:16;101105.47;;;23.96;68.63
60307;BME280;46155;52.364;6.580;2023-05-22T12:58:41;101107.38;;;24.10;69.32
60307;BME280;46155;52.364;6.580;2023-05-22T13:01:07;101106.50;;;24.09;67.93
60307;BME280;46155;52.364;6.580;2023-05-22T13:03:33;101100.31;;;24.18;70.20
60307;BME280;46155;52.364;6.580;2023-05-22T13:05:58;101103.09;;;24.26;69.74
60307;BME280;46155;52.364;6.580;2023-05-22T13:08:24;101102.25;;;24.34;66.83
60307;BME280;46155;52.364;6.580;2023-05-22T13:10:49;101098.63;;;24.29;66.58
60307;BME280;46155;52.364;6.580;2023-05-22T13:13:14;101097.59;;;24.13;66.86
60307;BME280;46155;52.364;6.580;2023-05-22T13:15:40;101094.94;;;24.15;67.61
60307;BME280;46155;52.364;6.580;2023-05-22T13:18:05;101096.81;;;24.28;67.51
60307;BME280;46155;52.364;6.580;2023-05-22T13:20:31;101096.94;;;24.40;66.87
60307;BME280;46155;52.364;6.580;2023-05-22T13:22:56;101094.09;;;24.20;64.58
60307;BME280;46155;52.364;6.580;2023-05-22T13:25:21;101100.31;;;24.18;66.17
60307;BME280;46155;52.364;6.580;2023-05-22T13:27:47;101092.34;;;24.26;66.10
60307;BME280;46155;52.364;6.580;2023-05-22T13:30:12;101093.25;;;24.29;67.52
60307;BME280;46155;52.364;6.580;2023-05-22T13:32:37;101095.13;;;24.36;69.36
60307;BME280;46155;52.364;6.580;2023-05-22T13:35:03;101093.38;;;24.40;68.19
60307;BME280;46155;52.364;6.580;2023-05-22T13:37:28;101095.09;;;24.33;66.19
60307;BME280;46155;52.364;6.580;2023-05-22T13:39:53;101088.84;;;24.31;66.89
60307;BME280;46155;52.364;6.580;2023-05-22T13:42:19;101089.59;;;24.21;66.49
60307;BME280;46155;52.364;6.580;2023-05-22T13:44:44;101087.00;;;24.27;67.97
60307;BME280;46155;52.364;6.580;2023-05-22T13:47:10;101094.25;;;24.39;66.71
60307;BME280;46155;52.364;6.580;2023-05-22T13:49:35;101097.88;;;24.46;67.81
60307;BME280;46155;52.364;6.580;2023-05-22T13:52:01;101094.38;;;24.54;68.13
60307;BME280;46155;52.364;6.580;2023-05-22T13:54:26;101103.41;;;24.61;67.73
60307;BME280;46155;52.364;6.580;2023-05-22T13:56:51;101099.75;;;24.54;66.67
60307;BME280;46155;52.364;6.580;2023-05-22T13:59:16;101096.19;;;24.57;67.83
60307;BME280;46155;52.364;6.580;2023-05-22T14:01:42;101095.28;;;24.58;68.16
60307;BME280;46155;52.364;6.580;2023-05-22T14:04:07;101097.06;;;24.53;67.67
60307;BME280;46155;52.364;6.580;2023-05-22T14:06:32;101096.97;;;24.47;67.04
60307;BME280;46155;52.364;6.580;2023-05-22T14:08:58;101101.44;;;24.43;67.21
60307;BME280;46155;52.364;6.580;2023-05-22T14:11:23;101092.31;;;24.24;64.75
60307;BME280;46155;52.364;6.580;2023-05-22T14:13:49;101092.38;;;24.29;66.03
60307;BME280;46155;52.364;6.580;2023-05-22T14:16:16;101081.53;;;24.16;66.35
60307;BME280;46155;52.364;6.580;2023-05-22T14:18:41;101089.53;;;24.12;67.40
60307;BME280;46155;52.364;6.580;2023-05-22T14:21:07;101089.47;;;24.05;67.74
60307;BME280;46155;52.364;6.580;2023-05-22T14:23:32;101089.47;;;24.05;66.53
60307;BME280;46155;52.364;6.580;2023-05-22T14:25:57;101093.94;;;24.03;66.60
60307;BME280;46155;52.364;6.580;2023-05-22T14:28:22;101096.63;;;24.06;67.29
60307;BME280;46155;52.364;6.580;2023-05-22T14:30:48;101101.94;;;24.00;68.57
60307;BME280;46155;52.364;6.580;2023-05-22T14:33:13;101094.53;;;23.78;70.41
60307;BME280;46155;52.364;6.580;2023-05-22T14:35:39;101088.97;;;23.62;72.36
60307;BME280;46155;52.364;6.580;2023-05-22T14:38:04;101096.97;;;23.56;74.54
60307;BME280;46155;52.364;6.580;2023-05-22T14:40:29;101090.47;;;23.38;76.57
60307;BME280;46155;52.364;6.580;2023-05-22T14:42:55;101088.63;;;23.34;78.25
60307;BME280;46155;52.364;6.580;2023-05-22T14:45:20;101093.94;;;23.30;80.34
60307;BME280;46155;52.364;6.580;2023-05-22T14:47:45;101092.09;;;23.24;81.38
60307;BME280;46155;52.364;6.580;2023-05-22T14:50:11;101109.81;;;23.16;80.27
60307;BME280;46155;52.364;6.580;2023-05-22T14:52:37;101110.53;;;23.04;80.55
60307;BME280;46155;52.364;6.580;2023-05-22T14:55:02;101109.44;;;22.91;82.08
60307;BME280;46155;52.364;6.580;2023-05-22T14:57:29;101106.56;;;22.79;81.84
60307;BME280;46155;52.364;6.580;2023-05-22T14:59:54;101110.28;;;22.89;82.54
60307;BME280;46155;52.364;6.580;2023-05-22T15:02:20;101112.13;;;22.91;82.32
60307;BME280;46155;52.364;6.580;2023-05-22T15:04:45;101114.44;;;22.69;82.42
60307;BME280;46155;52.364;6.580;2023-05-22T15:07:11;101107.28;;;22.65;82.78
60307;BME280;46155;52.364;6.580;2023-05-22T15:09:36;101110.91;;;22.70;83.12
60307;BME280;46155;52.364;6.580;2023-05-22T15:12:02;101115.50;;;22.79;83.88
60307;BME280;46155;52.364;6.580;2023-05-22T15:14:27;101117.22;;;22.76;81.86
60307;BME280;46155;52.364;6.580;2023-05-22T15:16:52;101116.28;;;22.74;81.28
60307;BME280;46155;52.364;6.580;2023-05-22T15:19:18;101118.19;;;22.81;82.17
60307;BME280;46155;52.364;6.580;2023-05-22T15:21:43;101118.09;;;22.75;82.57
60307;BME280;46155;52.364;6.580;2023-05-22T15:24:08;101132.97;;;22.56;82.46
60307;BME280;46155;52.364;6.580;2023-05-22T15:26:34;101117.50;;;22.38;83.36
60307;BME280;46155;52.364;6.580;2023-05-22T15:29:00;101122.72;;;22.31;84.60
60307;BME280;46155;52.364;6.580;2023-05-22T15:31:29;101128.06;;;22.31;83.93
60307;BME280;46155;52.364;6.580;2023-05-22T15:33:55;101126.34;;;22.33;83.50
60307;BME280;46155;52.364;6.580;2023-05-22T15:36:21;101129.84;;;22.32;83.99
60307;BME280;46155;52.364;6.580;2023-05-22T15:38:46;101128.00;;;22.28;83.70
60307;BME280;46155;52.364;6.580;2023-05-22T15:41:12;101135.94;;;22.24;83.35
60307;BME280;46155;52.364;6.580;2023-05-22T15:43:37;101126.00;;;22.16;83.57
60307;BME280;46155;52.364;6.580;2023-05-22T15:46:03;101138.53;;;22.19;82.96